SXS8GT LTAI-EDLW
Flight info
| Callsign | SXS8GT |
|---|---|
| Flight time | N/A |
| Altitude | 36000 |
| Route | EKNUD UQ26 TUDBU DCT NAVOD DCT PANZU DCT ELDET DCT BACAM DCT SODGO DCT INVED DCT BEGLA DCT DITIS DCT RAPET T170 RUNEN DCT FULNO/N0451F300 T842 IDEWE/N0413F240 T842 ADEMI ADEMI2A |
| Aircraft | B38M/M-SDE1FGHILORVWXY/HB1 |
Departure
| Time | N/A |
|---|---|
| Airport | Antalya International Airport (LTAI) |
Arrival
| Time | 2026-05-06 03:22 |
|---|---|
| Airport | Dortmund Airport (EDLW) |
| Time | Latitude | Longitude | Altitude | Speed | Heading |
|---|---|---|---|---|---|
| 2026-05-06 02:13 | 48.04638 | 16.72477 | 35860 ft | 436 kts | 306° |
| 2026-05-06 02:13 | 48.08467 | 16.65449 | 35858 ft | 436 kts | 306° |
| 2026-05-06 02:14 | 48.12290 | 16.58412 | 35861 ft | 436 kts | 306° |
| 2026-05-06 02:14 | 48.16115 | 16.51355 | 35855 ft | 436 kts | 306° |
| 2026-05-06 02:15 | 48.19911 | 16.44331 | 35865 ft | 437 kts | 307° |
| 2026-05-06 02:15 | 48.23741 | 16.37227 | 35857 ft | 439 kts | 307° |
| 2026-05-06 02:16 | 48.27571 | 16.30104 | 35854 ft | 439 kts | 307° |
| 2026-05-06 02:16 | 48.31398 | 16.22966 | 35858 ft | 439 kts | 306° |
| 2026-05-06 02:17 | 48.35194 | 16.15870 | 35857 ft | 439 kts | 306° |
| 2026-05-06 02:17 | 48.39011 | 16.08714 | 35858 ft | 438 kts | 306° |
| 2026-05-06 02:18 | 48.42817 | 16.01559 | 35869 ft | 438 kts | 306° |
| 2026-05-06 02:18 | 48.46624 | 15.94384 | 35855 ft | 438 kts | 306° |
| 2026-05-06 02:19 | 48.50402 | 15.87246 | 35847 ft | 438 kts | 306° |
| 2026-05-06 02:19 | 48.54197 | 15.80054 | 35854 ft | 438 kts | 306° |
| 2026-05-06 02:20 | 48.59884 | 15.69242 | 35849 ft | 438 kts | 306° |
| 2026-05-06 02:21 | 48.63667 | 15.62025 | 35863 ft | 438 kts | 306° |
| 2026-05-06 02:21 | 48.67419 | 15.54851 | 35863 ft | 438 kts | 306° |
| 2026-05-06 02:22 | 48.71195 | 15.47609 | 35848 ft | 438 kts | 306° |
| 2026-05-06 02:22 | 48.74969 | 15.40349 | 35860 ft | 438 kts | 306° |
| 2026-05-06 02:23 | 48.78736 | 15.33086 | 35849 ft | 438 kts | 306° |
| 2026-05-06 02:23 | 48.82477 | 15.25858 | 35845 ft | 438 kts | 306° |
| 2026-05-06 02:24 | 48.86238 | 15.18572 | 35834 ft | 438 kts | 305° |
| 2026-05-06 02:24 | 48.89971 | 15.11251 | 35840 ft | 438 kts | 304° |
| 2026-05-06 02:25 | 48.93590 | 15.03806 | 35843 ft | 438 kts | 304° |
| 2026-05-06 02:25 | 48.97189 | 14.96425 | 35835 ft | 437 kts | 303° |
| 2026-05-06 02:26 | 49.00809 | 14.88986 | 35839 ft | 437 kts | 303° |
| 2026-05-06 02:26 | 49.04425 | 14.81536 | 35833 ft | 437 kts | 303° |
| 2026-05-06 02:27 | 49.08034 | 14.74080 | 35828 ft | 437 kts | 303° |
| 2026-05-06 02:27 | 49.11612 | 14.66666 | 35835 ft | 437 kts | 303° |
| 2026-05-06 02:28 | 49.15209 | 14.59190 | 35836 ft | 437 kts | 303° |
| 2026-05-06 02:28 | 49.18802 | 14.51706 | 35833 ft | 437 kts | 303° |
| 2026-05-06 02:29 | 49.22389 | 14.44210 | 35837 ft | 437 kts | 303° |
| 2026-05-06 02:29 | 49.25971 | 14.36705 | 35838 ft | 437 kts | 303° |
| 2026-05-06 02:30 | 49.29526 | 14.29236 | 35839 ft | 437 kts | 302° |
| 2026-05-06 02:30 | 49.33097 | 14.21710 | 35841 ft | 436 kts | 302° |
| 2026-05-06 02:31 | 49.36658 | 14.14187 | 35837 ft | 436 kts | 302° |
| 2026-05-06 02:31 | 49.40217 | 14.06646 | 35834 ft | 436 kts | 302° |
| 2026-05-06 02:32 | 49.43746 | 13.99146 | 35833 ft | 436 kts | 302° |
| 2026-05-06 02:32 | 49.47289 | 13.91595 | 35830 ft | 436 kts | 302° |
| 2026-05-06 02:33 | 49.50827 | 13.84034 | 35833 ft | 436 kts | 302° |
| 2026-05-06 02:33 | 49.52000 | 13.81524 | 35830 ft | 436 kts | 302° |
| 2026-05-06 02:34 | 49.57895 | 13.68866 | 35838 ft | 436 kts | 302° |
| 2026-05-06 02:34 | 49.61393 | 13.61325 | 35842 ft | 436 kts | 302° |
| 2026-05-06 02:35 | 49.64913 | 13.53717 | 35851 ft | 436 kts | 301° |
| 2026-05-06 02:35 | 49.68428 | 13.46097 | 35854 ft | 436 kts | 301° |
| 2026-05-06 02:36 | 49.71942 | 13.38460 | 35857 ft | 436 kts | 301° |
| 2026-05-06 02:36 | 49.75421 | 13.30875 | 35853 ft | 436 kts | 301° |
| 2026-05-06 02:37 | 49.78926 | 13.23211 | 35858 ft | 436 kts | 301° |
| 2026-05-06 02:37 | 49.82420 | 13.15550 | 35851 ft | 436 kts | 301° |
| 2026-05-06 02:38 | 49.85912 | 13.07869 | 35835 ft | 436 kts | 301° |
| 2026-05-06 02:38 | 49.89372 | 13.00237 | 35831 ft | 436 kts | 301° |
| 2026-05-06 02:39 | 49.92852 | 12.92541 | 35852 ft | 436 kts | 301° |
| 2026-05-06 02:39 | 49.96318 | 12.84851 | 35852 ft | 434 kts | 301° |
| 2026-05-06 02:40 | 49.99772 | 12.77168 | 35851 ft | 433 kts | 300° |
| 2026-05-06 02:40 | 50.03196 | 12.69528 | 35856 ft | 434 kts | 300° |
| 2026-05-06 02:41 | 50.06640 | 12.61822 | 35848 ft | 434 kts | 300° |
| 2026-05-06 02:41 | 50.10079 | 12.54109 | 35843 ft | 434 kts | 300° |
| 2026-05-06 02:42 | 50.13511 | 12.46393 | 35845 ft | 433 kts | 300° |
| 2026-05-06 02:42 | 50.16921 | 12.38704 | 35846 ft | 434 kts | 300° |
| 2026-05-06 02:43 | 50.19763 | 12.30571 | 35852 ft | 422 kts | 284° |
| 2026-05-06 02:43 | 50.21448 | 12.23377 | 35835 ft | 425 kts | 286° |
| 2026-05-06 02:44 | 50.23798 | 12.13220 | 35869 ft | 425 kts | 285° |
| 2026-05-06 02:44 | 50.25451 | 12.05996 | 35891 ft | 424 kts | 285° |
| 2026-05-06 02:45 | 50.27765 | 11.95923 | 35887 ft | 423 kts | 285° |
| 2026-05-06 02:45 | 50.29414 | 11.88730 | 35882 ft | 423 kts | 285° |
| 2026-05-06 02:46 | 50.31395 | 11.80057 | 35882 ft | 423 kts | 285° |
| 2026-05-06 02:46 | 50.33371 | 11.71372 | 35884 ft | 423 kts | 285° |
| 2026-05-06 02:47 | 50.35655 | 11.61287 | 35879 ft | 423 kts | 285° |
| 2026-05-06 02:47 | 50.37298 | 11.53997 | 35881 ft | 424 kts | 285° |
| 2026-05-06 02:48 | 50.39241 | 11.45351 | 35875 ft | 423 kts | 285° |
| 2026-05-06 02:48 | 50.41190 | 11.36646 | 35871 ft | 423 kts | 285° |
| 2026-05-06 02:49 | 50.43130 | 11.27926 | 35879 ft | 424 kts | 285° |
| 2026-05-06 02:49 | 50.45064 | 11.19201 | 35882 ft | 423 kts | 285° |
| 2026-05-06 02:50 | 50.46980 | 11.10518 | 35894 ft | 424 kts | 284° |
| 2026-05-06 02:50 | 50.48904 | 11.01763 | 35882 ft | 424 kts | 284° |
| 2026-05-06 02:51 | 50.50821 | 10.93004 | 35882 ft | 424 kts | 284° |
| 2026-05-06 02:51 | 50.52734 | 10.84231 | 35887 ft | 424 kts | 284° |
| 2026-05-06 02:52 | 50.54712 | 10.75479 | 35883 ft | 425 kts | 285° |
| 2026-05-06 02:52 | 50.56673 | 10.66795 | 35885 ft | 424 kts | 285° |
| 2026-05-06 02:53 | 50.58711 | 10.58071 | 35871 ft | 428 kts | 291° |
| 2026-05-06 02:53 | 50.61419 | 10.49811 | 35716 ft | 415 kts | 292° |
| 2026-05-06 02:53 | 50.62727 | 10.45819 | 35379 ft | 408 kts | 292° |
| 2026-05-06 02:54 | 50.64023 | 10.41868 | 34908 ft | 404 kts | 292° |
| 2026-05-06 02:54 | 50.65292 | 10.37997 | 34428 ft | 402 kts | 292° |
| 2026-05-06 02:54 | 50.66569 | 10.34093 | 33932 ft | 400 kts | 292° |
| 2026-05-06 02:54 | 50.67840 | 10.30207 | 33407 ft | 398 kts | 291° |
| 2026-05-06 02:55 | 50.69100 | 10.26347 | 32893 ft | 395 kts | 291° |
| 2026-05-06 02:55 | 50.70352 | 10.22505 | 32399 ft | 392 kts | 291° |
| 2026-05-06 02:55 | 50.71592 | 10.18692 | 31951 ft | 389 kts | 292° |
| 2026-05-06 02:55 | 50.72819 | 10.14915 | 31501 ft | 386 kts | 292° |
| 2026-05-06 02:56 | 50.74037 | 10.11159 | 31044 ft | 383 kts | 292° |
| 2026-05-06 02:56 | 50.75247 | 10.07423 | 30607 ft | 381 kts | 292° |
| 2026-05-06 02:56 | 50.76431 | 10.03762 | 30162 ft | 379 kts | 292° |
| 2026-05-06 02:56 | 50.77625 | 10.00064 | 29698 ft | 377 kts | 292° |
| 2026-05-06 02:57 | 50.78814 | 9.96379 | 29219 ft | 375 kts | 292° |
| 2026-05-06 02:57 | 50.79989 | 9.92729 | 28794 ft | 371 kts | 292° |
| 2026-05-06 02:57 | 50.81154 | 9.89103 | 28373 ft | 368 kts | 292° |
| 2026-05-06 02:57 | 50.82304 | 9.85521 | 27982 ft | 365 kts | 292° |
| 2026-05-06 02:58 | 50.83447 | 9.81954 | 27565 ft | 362 kts | 292° |
| 2026-05-06 02:58 | 50.84583 | 9.78408 | 27172 ft | 359 kts | 292° |
| 2026-05-06 02:58 | 50.85704 | 9.74903 | 26789 ft | 364 kts | 292° |
| 2026-05-06 02:58 | 50.86852 | 9.71305 | 26385 ft | 368 kts | 292° |
| 2026-05-06 02:59 | 50.87859 | 9.67598 | 25926 ft | 366 kts | 289° |
| 2026-05-06 02:59 | 50.88829 | 9.63898 | 25537 ft | 363 kts | 289° |
| 2026-05-06 02:59 | 50.89805 | 9.60218 | 25154 ft | 361 kts | 289° |
| 2026-05-06 02:59 | 50.90778 | 9.56565 | 24762 ft | 359 kts | 289° |
| 2026-05-06 03:00 | 50.91746 | 9.52934 | 24378 ft | 357 kts | 289° |
| 2026-05-06 03:00 | 50.92711 | 9.49307 | 23989 ft | 357 kts | 289° |
| 2026-05-06 03:00 | 50.93663 | 9.45675 | 23551 ft | 358 kts | 289° |
| 2026-05-06 03:00 | 50.94603 | 9.42085 | 23150 ft | 356 kts | 289° |
| 2026-05-06 03:01 | 50.95548 | 9.38471 | 22768 ft | 353 kts | 289° |
| 2026-05-06 03:01 | 50.96484 | 9.34887 | 22385 ft | 350 kts | 290° |
| 2026-05-06 03:01 | 50.97411 | 9.31330 | 22009 ft | 348 kts | 290° |
| 2026-05-06 03:01 | 50.98330 | 9.27799 | 21641 ft | 345 kts | 289° |
| 2026-05-06 03:02 | 50.99243 | 9.24287 | 21274 ft | 342 kts | 289° |
| 2026-05-06 03:02 | 51.00146 | 9.20807 | 20919 ft | 340 kts | 289° |
| 2026-05-06 03:02 | 51.01040 | 9.17356 | 20554 ft | 337 kts | 289° |
| 2026-05-06 03:02 | 51.01918 | 9.13964 | 20211 ft | 335 kts | 289° |
| 2026-05-06 03:03 | 51.02799 | 9.10553 | 19859 ft | 333 kts | 289° |
| 2026-05-06 03:03 | 51.03672 | 9.07170 | 19513 ft | 331 kts | 289° |
| 2026-05-06 03:03 | 51.04542 | 9.03793 | 19159 ft | 329 kts | 289° |
| 2026-05-06 03:03 | 51.05405 | 9.00439 | 18823 ft | 327 kts | 289° |
| 2026-05-06 03:04 | 51.06263 | 8.97101 | 18474 ft | 326 kts | 289° |
| 2026-05-06 03:04 | 51.07121 | 8.93756 | 18066 ft | 326 kts | 289° |
| 2026-05-06 03:04 | 51.07973 | 8.90427 | 17695 ft | 325 kts | 289° |
| 2026-05-06 03:04 | 51.08811 | 8.87152 | 17336 ft | 323 kts | 289° |
| 2026-05-06 03:05 | 51.09652 | 8.83862 | 16999 ft | 320 kts | 289° |
| 2026-05-06 03:05 | 51.10487 | 8.80590 | 16655 ft | 318 kts | 289° |
| 2026-05-06 03:05 | 51.11386 | 8.77383 | 16281 ft | 318 kts | 297° |
| 2026-05-06 03:05 | 51.12502 | 8.74357 | 15950 ft | 316 kts | 297° |
| 2026-05-06 03:06 | 51.13588 | 8.71345 | 15635 ft | 313 kts | 296° |
| 2026-05-06 03:06 | 51.14657 | 8.68338 | 15313 ft | 311 kts | 296° |
| 2026-05-06 03:06 | 51.15710 | 8.65349 | 14987 ft | 309 kts | 296° |
| 2026-05-06 03:06 | 51.16741 | 8.62404 | 14662 ft | 307 kts | 296° |
| 2026-05-06 03:07 | 51.17614 | 8.59315 | 14212 ft | 306 kts | 284° |
| 2026-05-06 03:07 | 51.18265 | 8.56044 | 13633 ft | 314 kts | 285° |
| 2026-05-06 03:07 | 51.18962 | 8.52736 | 13170 ft | 315 kts | 286° |
| 2026-05-06 03:07 | 51.19674 | 8.49437 | 12803 ft | 314 kts | 287° |
| 2026-05-06 03:08 | 51.20390 | 8.46164 | 12438 ft | 312 kts | 287° |
| 2026-05-06 03:08 | 51.21108 | 8.42908 | 12089 ft | 310 kts | 287° |
| 2026-05-06 03:08 | 51.21825 | 8.39672 | 11736 ft | 309 kts | 287° |
| 2026-05-06 03:08 | 51.22537 | 8.36457 | 11394 ft | 307 kts | 287° |
| 2026-05-06 03:09 | 51.23247 | 8.33251 | 11057 ft | 306 kts | 287° |
| 2026-05-06 03:09 | 51.23943 | 8.30102 | 10707 ft | 304 kts | 287° |
| 2026-05-06 03:09 | 51.24642 | 8.26939 | 10375 ft | 300 kts | 287° |
| 2026-05-06 03:09 | 51.25333 | 8.23812 | 10034 ft | 297 kts | 287° |
| 2026-05-06 03:10 | 51.26012 | 8.20726 | 9710 ft | 293 kts | 287° |
| 2026-05-06 03:10 | 51.26682 | 8.17681 | 9335 ft | 288 kts | 287° |
| 2026-05-06 03:10 | 51.27337 | 8.14699 | 8992 ft | 282 kts | 287° |
| 2026-05-06 03:10 | 51.27978 | 8.11783 | 8635 ft | 274 kts | 287° |
| 2026-05-06 03:11 | 51.28590 | 8.08986 | 8328 ft | 266 kts | 287° |
| 2026-05-06 03:11 | 51.29191 | 8.06230 | 7967 ft | 259 kts | 287° |
| 2026-05-06 03:11 | 51.29774 | 8.03564 | 7691 ft | 249 kts | 287° |
| 2026-05-06 03:11 | 51.30334 | 8.00995 | 7393 ft | 242 kts | 287° |
| 2026-05-06 03:12 | 51.30882 | 7.98486 | 7084 ft | 237 kts | 287° |
| 2026-05-06 03:12 | 51.31414 | 7.96041 | 6764 ft | 227 kts | 287° |
| 2026-05-06 03:12 | 51.31921 | 7.93708 | 6477 ft | 217 kts | 286° |
| 2026-05-06 03:12 | 51.32409 | 7.91461 | 6222 ft | 212 kts | 286° |
| 2026-05-06 03:13 | 51.32887 | 7.89259 | 5961 ft | 207 kts | 286° |
| 2026-05-06 03:13 | 51.33353 | 7.87109 | 5689 ft | 202 kts | 286° |
| 2026-05-06 03:13 | 51.33801 | 7.85038 | 5472 ft | 198 kts | 286° |
| 2026-05-06 03:13 | 51.34249 | 7.82964 | 5274 ft | 197 kts | 286° |
| 2026-05-06 03:14 | 51.34694 | 7.80906 | 5081 ft | 195 kts | 286° |
| 2026-05-06 03:14 | 51.35136 | 7.78860 | 4919 ft | 194 kts | 285° |
| 2026-05-06 03:14 | 51.35575 | 7.76822 | 4749 ft | 194 kts | 286° |
| 2026-05-06 03:14 | 51.36013 | 7.74791 | 4627 ft | 192 kts | 286° |
| 2026-05-06 03:15 | 51.36448 | 7.72766 | 4456 ft | 192 kts | 286° |
| 2026-05-06 03:15 | 51.36881 | 7.70754 | 4317 ft | 192 kts | 286° |
| 2026-05-06 03:15 | 51.37311 | 7.68744 | 4120 ft | 191 kts | 286° |
| 2026-05-06 03:15 | 51.37736 | 7.66766 | 3941 ft | 190 kts | 287° |
| 2026-05-06 03:16 | 51.38167 | 7.64757 | 3751 ft | 191 kts | 287° |
| 2026-05-06 03:16 | 51.38598 | 7.62745 | 3540 ft | 191 kts | 287° |
| 2026-05-06 03:16 | 51.39028 | 7.60736 | 3347 ft | 191 kts | 287° |
| 2026-05-06 03:16 | 51.39457 | 7.58730 | 3143 ft | 190 kts | 287° |
| 2026-05-06 03:17 | 51.39884 | 7.56729 | 2934 ft | 190 kts | 288° |
| 2026-05-06 03:17 | 51.40311 | 7.54728 | 2729 ft | 189 kts | 289° |
| 2026-05-06 03:17 | 51.40735 | 7.52737 | 2603 ft | 189 kts | 289° |
| 2026-05-06 03:17 | 51.41154 | 7.50766 | 2570 ft | 189 kts | 289° |
| 2026-05-06 03:18 | 51.41578 | 7.48771 | 2586 ft | 190 kts | 289° |
| 2026-05-06 03:18 | 51.42159 | 7.46892 | 2571 ft | 189 kts | 311° |
| 2026-05-06 03:18 | 51.43202 | 7.45661 | 2578 ft | 187 kts | 338° |
| 2026-05-06 03:18 | 51.44477 | 7.45352 | 2617 ft | 187 kts | 4° |
| 2026-05-06 03:19 | 51.45716 | 7.45896 | 2544 ft | 186 kts | 32° |
| 2026-05-06 03:19 | 51.46716 | 7.47190 | 2341 ft | 184 kts | 46° |
| 2026-05-06 03:19 | 51.47470 | 7.48764 | 2134 ft | 176 kts | 57° |
| 2026-05-06 03:19 | 51.48050 | 7.50432 | 1889 ft | 165 kts | 61° |
| 2026-05-06 03:20 | 51.49121 | 7.53525 | 1465 ft | 156 kts | 59° |
| 2026-05-06 03:20 | 51.49652 | 7.55037 | 1243 ft | 154 kts | 58° |
| 2026-05-06 03:20 | 51.50178 | 7.56525 | 1034 ft | 153 kts | 58° |
| 2026-05-06 03:21 | 51.50697 | 7.58007 | 830 ft | 153 kts | 58° |
| 2026-05-06 03:21 | 51.51233 | 7.59521 | 639 ft | 160 kts | 58° |
| 2026-05-06 03:21 | 51.51758 | 7.61019 | 421 ft | 149 kts | 59° |
| 2026-05-06 03:21 | 51.52218 | 7.62280 | 415 ft | 109 kts | 60° |
| 2026-05-06 03:22 | 51.52293 | 7.62737 | 413 ft | 21 kts | 149° |
| 2026-05-06 03:22 | 51.52214 | 7.62780 | 410 ft | 11 kts | 185° |
| 2026-05-06 03:22 | 51.52156 | 7.62690 | 407 ft | 13 kts | 241° |
| 2026-05-06 03:22 | 51.52112 | 7.62564 | 413 ft | 13 kts | 241° |
| 2026-05-06 03:23 | 51.52070 | 7.62440 | 418 ft | 13 kts | 241° |
| 2026-05-06 03:23 | 51.52022 | 7.62302 | 415 ft | 15 kts | 240° |
| 2026-05-06 03:23 | 51.51970 | 7.62155 | 415 ft | 16 kts | 240° |
| 2026-05-06 03:23 | 51.51912 | 7.61992 | 414 ft | 18 kts | 240° |
| 2026-05-06 03:24 | 51.51855 | 7.61830 | 417 ft | 17 kts | 240° |
| 2026-05-06 03:24 | 51.51798 | 7.61667 | 420 ft | 15 kts | 240° |
| 2026-05-06 03:24 | 51.51755 | 7.61546 | 429 ft | 12 kts | 240° |
| 2026-05-06 03:24 | 51.51713 | 7.61427 | 429 ft | 13 kts | 240° |
| 2026-05-06 03:25 | 51.51670 | 7.61304 | 428 ft | 11 kts | 240° |
| 2026-05-06 03:25 | 51.51634 | 7.61200 | 433 ft | 11 kts | 240° |
| 2026-05-06 03:25 | 51.51597 | 7.61093 | 428 ft | 10 kts | 241° |
| 2026-05-06 03:25 | 51.51556 | 7.61055 | 435 ft | 6 kts | 173° |
| 2026-05-06 03:26 | 51.51511 | 7.61042 | 434 ft | 8 kts | 219° |
| 2026-05-06 03:26 | 51.51480 | 7.60970 | 431 ft | 5 kts | 241° |
| 2026-05-06 03:26 | 51.51465 | 7.60926 | 437 ft | 3 kts | 241° |
| 2026-05-06 03:26 | 51.51448 | 7.60897 | 437 ft | 4 kts | 201° |
| 2026-05-06 03:27 | 51.51416 | 7.60909 | 425 ft | 5 kts | 149° |
| 2026-05-06 03:27 | 51.51406 | 7.60920 | 424 ft | 3 kts | 141° |
| 2026-05-06 03:27 | 51.51395 | 7.60935 | 433 ft | 1 kts | 142° |
| 2026-05-06 03:27 | 51.51390 | 7.60941 | 434 ft | 0 kts | 142° |
| 2026-05-06 03:28 | 51.51389 | 7.60942 | 434 ft | 0 kts | 142° |
| 2026-05-06 03:31 | 51.51389 | 7.60941 | 434 ft | 0 kts | 142° |
| 2026-05-06 03:31 | 51.51390 | 7.60941 | 434 ft | 0 kts | 142° |